createdAt,value
2022-10-04T00:01:23.449Z,20.1
2022-10-04T00:03:39.757Z,20.4
2022-10-04T00:05:56.120Z,20.4
2022-10-04T00:08:12.802Z,20.3
2022-10-04T00:10:29.013Z,20.2
2022-10-04T00:12:45.340Z,20.3
2022-10-04T00:15:01.948Z,20.4
2022-10-04T00:17:16.887Z,20.2
2022-10-04T00:19:33.487Z,20.6
2022-10-04T00:21:49.986Z,20.3
2022-10-04T00:24:06.500Z,20.3
2022-10-04T00:26:22.144Z,20.3
2022-10-04T00:28:36.807Z,20.5
2022-10-04T00:30:53.788Z,20.6
2022-10-04T00:33:09.639Z,20
2022-10-04T00:35:27.586Z,20.3
2022-10-04T00:37:43.999Z,20.4
2022-10-04T00:40:00.446Z,20.3
2022-10-04T00:42:16.763Z,20.3
2022-10-04T00:44:31.679Z,20.3
2022-10-04T00:46:48.289Z,20.6
2022-10-04T00:49:03.162Z,20.4
2022-10-04T00:51:19.573Z,20.4
2022-10-04T00:53:34.641Z,20.1
2022-10-04T00:55:51.076Z,20.5
2022-10-04T00:58:07.661Z,20.1
2022-10-04T01:00:22.588Z,20.3
2022-10-04T01:02:39.162Z,20.5
2022-10-04T01:04:55.589Z,20.1
2022-10-04T01:07:12.039Z,20.1
2022-10-04T01:09:28.559Z,20.4
2022-10-04T01:11:45.079Z,20.4
2022-10-04T01:14:00.807Z,20.4
2022-10-04T01:16:15.124Z,20.6
2022-10-04T01:18:31.593Z,20.6
2022-10-04T01:20:48.363Z,20.1
2022-10-04T01:23:04.969Z,20.1
2022-10-04T01:25:21.514Z,20.3
2022-10-04T01:27:37.970Z,20.1
2022-10-04T01:29:54.551Z,20.3
2022-10-04T01:32:11.093Z,20.3
2022-10-04T01:34:27.530Z,20.2
2022-10-04T01:36:44.369Z,20.3
2022-10-04T01:39:00.592Z,20.3
2022-10-04T01:41:16.955Z,20.2
2022-10-04T01:43:33.256Z,20.3
2022-10-04T01:45:48.614Z,20.3
2022-10-04T01:48:04.973Z,20.4
2022-10-04T01:50:21.737Z,20.1
2022-10-04T01:52:36.773Z,20.1
2022-10-04T01:54:53.438Z,20.4
2022-10-04T01:57:10.032Z,20.1
2022-10-04T01:59:26.619Z,20
2022-10-04T02:01:43.401Z,20.1
2022-10-04T02:03:59.505Z,20.2
2022-10-04T02:06:16.063Z,20.1
2022-10-04T02:08:32.671Z,20.4
2022-10-04T02:10:49.164Z,20
2022-10-04T02:13:05.579Z,20.3
2022-10-04T02:15:22.206Z,20.2
2022-10-04T02:17:38.848Z,19.9
2022-10-04T02:19:53.842Z,20.1
2022-10-04T02:22:10.253Z,20.4
2022-10-04T02:24:25.549Z,20.1
2022-10-04T02:26:40.413Z,20.4
2022-10-04T02:28:55.364Z,20.4
2022-10-04T02:31:10.642Z,20.2
2022-10-04T02:33:27.200Z,20.3
2022-10-04T02:35:44.104Z,20
2022-10-04T02:37:59.143Z,19.9
2022-10-04T02:40:15.920Z,20.4
2022-10-04T02:42:30.955Z,20.2
2022-10-04T02:44:46.093Z,20.5
2022-10-04T02:47:02.630Z,20.3
2022-10-04T02:49:19.268Z,19.9
2022-10-04T02:51:34.471Z,19.9
2022-10-04T02:53:51.029Z,20.3
2022-10-04T02:56:07.810Z,19.8
2022-10-04T02:58:24.331Z,20
2022-10-04T03:00:41.065Z,20
2022-10-04T03:02:57.797Z,20.1
2022-10-04T03:05:14.425Z,20.1
2022-10-04T03:07:30.638Z,20.1
2022-10-04T03:09:45.977Z,20
2022-10-04T03:12:02.463Z,20.4
2022-10-04T03:14:18.989Z,19.9
2022-10-04T03:16:35.774Z,19.8
2022-10-04T03:18:52.216Z,20
2022-10-04T03:21:08.966Z,20
2022-10-04T03:23:25.608Z,19.9
2022-10-04T03:25:42.123Z,19.9
2022-10-04T03:27:58.660Z,20
2022-10-04T03:30:15.345Z,19.9
2022-10-04T03:32:31.785Z,19.9
2022-10-04T03:34:48.247Z,20
2022-10-04T03:37:04.989Z,19.9
2022-10-04T03:39:21.465Z,19.8
2022-10-04T03:41:38.159Z,19.9
2022-10-04T03:43:54.547Z,19.9
2022-10-04T03:46:11.297Z,20
2022-10-04T03:48:27.920Z,19.9
2022-10-04T03:50:42.935Z,20.1
2022-10-04T03:52:57.903Z,20.1
2022-10-04T03:55:14.715Z,20.3
2022-10-04T03:57:31.339Z,19.9
2022-10-04T03:59:47.946Z,19.7
2022-10-04T04:02:04.739Z,19.9
2022-10-04T04:04:21.159Z,20
2022-10-04T04:06:37.911Z,19.9
2022-10-04T04:08:54.442Z,19.9
2022-10-04T04:11:11.258Z,19.8
2022-10-04T04:13:26.140Z,19.8
2022-10-04T04:15:42.922Z,20.1
2022-10-04T04:17:59.483Z,19.8
2022-10-04T04:20:16.019Z,19.9
2022-10-04T04:22:32.824Z,19.9
2022-10-04T04:24:49.353Z,19.9
2022-10-04T04:27:06.159Z,19.8
2022-10-04T04:29:22.609Z,19.8
2022-10-04T04:31:39.464Z,19.9
2022-10-04T04:33:56.132Z,19.8
2022-10-04T04:36:12.746Z,19.9
2022-10-04T04:38:29.129Z,19.8
2022-10-04T04:40:44.326Z,19.8
2022-10-04T04:43:00.290Z,20.2
2022-10-04T04:45:17.419Z,19.9
2022-10-04T04:47:44.285Z,19.8
2022-10-04T04:50:00.893Z,19.8
2022-10-04T04:52:17.380Z,20
2022-10-04T04:54:32.413Z,19.8
2022-10-04T04:56:59.766Z,19.9
2022-10-04T04:59:14.832Z,19.9
2022-10-04T05:01:31.582Z,20.1
2022-10-04T05:03:48.282Z,19.7
2022-10-04T05:06:05.291Z,19.6
2022-10-04T05:08:21.553Z,19.7
2022-10-04T05:10:38.149Z,19.6
2022-10-04T05:12:54.974Z,19.6
2022-10-04T05:15:09.477Z,19.8
2022-10-04T05:17:26.742Z,19.9
2022-10-04T05:19:43.625Z,19.7
2022-10-04T05:21:58.711Z,19.8
2022-10-04T05:24:15.264Z,20.1
2022-10-04T05:26:32.169Z,19.9
2022-10-04T05:28:48.760Z,19.6
2022-10-04T05:31:05.311Z,19.7
2022-10-04T05:33:22.150Z,19.8
2022-10-04T05:35:38.659Z,19.6
2022-10-04T05:37:55.353Z,19.8
2022-10-04T05:40:10.364Z,19.9
2022-10-04T05:42:27.115Z,20.2
2022-10-04T05:44:42.109Z,19.9
2022-10-04T05:46:57.373Z,20.3
2022-10-04T05:49:18.310Z,20.3
2022-10-04T05:51:31.010Z,19.9
2022-10-04T05:53:47.493Z,19.9
2022-10-04T05:56:04.030Z,19.9
2022-10-04T05:58:19.402Z,20.1
2022-10-04T06:00:34.392Z,20.4
2022-10-04T06:02:51.282Z,20.4
2022-10-04T06:05:08.073Z,20.1
2022-10-04T06:07:24.614Z,19.9
2022-10-04T06:09:41.264Z,20.2
2022-10-04T06:11:57.387Z,20.1
2022-10-04T06:14:12.958Z,20.4
2022-10-04T06:16:29.595Z,20.6
2022-10-04T06:18:46.394Z,20.3
2022-10-04T06:21:02.888Z,20.4
2022-10-04T06:23:19.636Z,20.4
2022-10-04T06:25:36.171Z,20.6
2022-10-04T06:27:52.815Z,20.7
2022-10-04T06:30:09.101Z,20.8
2022-10-04T06:32:25.813Z,20.8
2022-10-04T06:34:42.160Z,20.8
2022-10-04T06:36:58.814Z,20.9
2022-10-04T06:39:15.193Z,21.1
2022-10-04T06:41:31.560Z,21.1
2022-10-04T06:43:48.128Z,21.2
2022-10-04T06:46:04.535Z,21.3
2022-10-04T06:48:21.000Z,21.4
2022-10-04T06:50:37.547Z,21.2
2022-10-04T06:52:53.972Z,21.3
2022-10-04T06:55:10.293Z,21.3
2022-10-04T06:57:26.854Z,21.3
2022-10-04T06:59:41.835Z,21.6
2022-10-04T07:01:58.902Z,21.7
2022-10-04T07:04:14.963Z,21.6
2022-10-04T07:06:42.230Z,21.6
2022-10-04T07:08:58.753Z,21.7
2022-10-04T07:11:15.003Z,21.7
2022-10-04T07:13:31.474Z,21.6
2022-10-04T07:15:47.317Z,21.7
2022-10-04T07:18:04.202Z,21.7
2022-10-04T07:20:20.720Z,21.8
2022-10-04T07:22:36.954Z,21.6
2022-10-04T07:24:53.326Z,21.8
2022-10-04T07:27:09.095Z,21.7
2022-10-04T07:29:26.079Z,21.7
2022-10-04T07:31:42.631Z,21.8
2022-10-04T07:33:58.647Z,21.6
2022-10-04T07:36:17.633Z,21.6
2022-10-04T07:38:31.243Z,21.8
2022-10-04T07:40:47.608Z,21.8
2022-10-04T07:43:03.773Z,22
2022-10-04T07:45:20.226Z,22
2022-10-04T07:47:36.415Z,22
2022-10-04T07:49:52.740Z,21.8
2022-10-04T07:52:09.017Z,21.9
2022-10-04T07:54:25.256Z,22.1
2022-10-04T07:56:41.227Z,22.1
2022-10-04T07:58:57.948Z,22.1
2022-10-04T08:01:14.526Z,22.1
2022-10-04T08:03:30.742Z,22
2022-10-04T08:05:45.713Z,21.9
2022-10-04T08:08:00.458Z,22.3
2022-10-04T08:10:16.982Z,22.3
2022-10-04T08:12:32.103Z,21.8
2022-10-04T08:14:48.407Z,22.2
2022-10-04T08:17:05.074Z,22
2022-10-04T08:19:21.445Z,21.9
2022-10-04T08:21:38.210Z,21.9
2022-10-04T08:23:54.316Z,22.1
2022-10-04T08:26:10.640Z,21.9
2022-10-04T08:28:27.155Z,21.9
2022-10-04T08:30:42.938Z,21.9
2022-10-04T08:32:59.814Z,21.8
2022-10-04T08:35:15.611Z,21.9
2022-10-04T08:37:32.476Z,21.9
2022-10-04T08:39:48.873Z,22.1
2022-10-04T08:42:03.818Z,21.9
2022-10-04T08:44:20.222Z,22.1
2022-10-04T08:46:35.326Z,21.9
2022-10-04T08:48:50.419Z,22.4
2022-10-04T08:51:06.758Z,22.3
2022-10-04T08:53:22.699Z,22.2
2022-10-04T08:55:39.861Z,22.1
2022-10-04T08:57:56.277Z,22.1
2022-10-04T09:00:11.894Z,22.3
2022-10-04T09:02:26.152Z,22.7
2022-10-04T09:04:40.507Z,22.6
2022-10-04T09:06:57.843Z,22.8
2022-10-04T09:09:12.639Z,22.5
2022-10-04T09:11:27.517Z,22.8
2022-10-04T09:13:42.542Z,22.8
2022-10-04T09:15:57.648Z,22.7
2022-10-04T09:18:12.680Z,22.6
2022-10-04T09:20:40.006Z,22.8
2022-10-04T09:22:56.525Z,22.7
2022-10-04T09:25:12.940Z,22.7
2022-10-04T09:27:53.990Z,22.6
2022-10-04T09:29:58.817Z,22.6
2022-10-04T09:32:15.214Z,22.6
2022-10-04T09:34:35.139Z,22.7
2022-10-04T09:36:47.519Z,22.7
2022-10-04T09:39:25.521Z,22.8
2022-10-04T09:41:32.805Z,22.7
2022-10-04T09:43:47.800Z,22.7
2022-10-04T09:46:02.618Z,23.1
2022-10-04T09:48:19.084Z,23
2022-10-04T09:50:35.327Z,22.8
2022-10-04T09:52:51.584Z,23.3
2022-10-04T09:55:07.736Z,23.1
2022-10-04T09:57:24.165Z,23.3
2022-10-04T09:59:39.843Z,23.4
2022-10-04T10:01:55.938Z,23.3
2022-10-04T10:04:12.055Z,23.1
2022-10-04T10:06:28.108Z,23.1
2022-10-04T10:08:44.140Z,23
2022-10-04T10:11:00.187Z,23.1
2022-10-04T10:13:16.248Z,23.3
2022-10-04T10:15:32.269Z,23.3
2022-10-04T10:17:48.322Z,23.3
2022-10-04T10:20:03.929Z,22.9
2022-10-04T10:22:20.450Z,23.2
2022-10-04T10:24:36.466Z,23.4
2022-10-04T10:26:52.449Z,23.2
2022-10-04T10:29:08.896Z,23.1
2022-10-04T10:31:22.405Z,23.3
2022-10-04T10:33:37.225Z,23.3
2022-10-04T10:35:53.482Z,23.2
2022-10-04T10:38:08.531Z,23.1
2022-10-04T10:40:23.571Z,23.2
2022-10-04T10:42:38.424Z,23.2
2022-10-04T10:44:53.522Z,23.2
2022-10-04T10:47:09.715Z,23.2
2022-10-04T10:49:24.613Z,22.8
2022-10-04T10:51:40.659Z,23.2
2022-10-04T10:53:55.582Z,22.8
2022-10-04T10:56:10.576Z,23.2
2022-10-04T10:58:25.839Z,23.2
2022-10-04T11:00:41.719Z,23.3
2022-10-04T11:03:13.004Z,22.7
2022-10-04T11:05:21.391Z,23.3
2022-10-04T11:07:36.463Z,22.7
2022-10-04T11:09:52.660Z,23.2
2022-10-04T11:12:07.062Z,22.8
2022-10-04T11:14:22.460Z,23
2022-10-04T11:16:38.769Z,23.2
2022-10-04T11:18:55.138Z,22.9
2022-10-04T11:21:11.498Z,23.3
2022-10-04T11:23:27.671Z,23
2022-10-04T11:25:43.943Z,23.1
2022-10-04T11:28:00.206Z,23.1
2022-10-04T11:30:16.418Z,22.8
2022-10-04T11:32:31.755Z,23.2
2022-10-04T11:34:48.368Z,23
2022-10-04T11:37:04.599Z,23.4
2022-10-04T11:39:20.668Z,23.3
2022-10-04T11:41:36.720Z,22.9
2022-10-04T11:43:53.120Z,23
2022-10-04T11:46:10.992Z,22.9
2022-10-04T11:48:24.892Z,22.9
2022-10-04T11:50:41.053Z,23.1
2022-10-04T11:52:57.140Z,23
2022-10-04T11:55:13.137Z,23
2022-10-04T11:57:29.144Z,22.7
2022-10-04T11:59:45.269Z,22.8
2022-10-04T12:02:01.218Z,22.9
2022-10-04T12:04:17.356Z,22.9
2022-10-04T12:06:33.212Z,22.8
2022-10-04T12:08:49.196Z,22.8
2022-10-04T12:11:05.291Z,22.6
2022-10-04T12:13:21.226Z,22.8
2022-10-04T12:15:37.448Z,22.9
2022-10-04T12:17:53.358Z,22.8
2022-10-04T12:20:12.117Z,22.6
2022-10-04T12:22:25.724Z,22.7
2022-10-04T12:24:42.667Z,22.4
2022-10-04T12:26:57.950Z,22.6
2022-10-04T12:29:13.523Z,22.4
2022-10-04T12:31:30.294Z,22.8
2022-10-04T12:33:46.214Z,22.8
2022-10-04T12:36:02.573Z,22.5
2022-10-04T12:38:18.765Z,22.3
2022-10-04T12:40:33.861Z,22.4
2022-10-04T12:42:49.881Z,22.6
2022-10-04T12:45:05.509Z,22.3
2022-10-04T12:47:21.907Z,22.8
2022-10-04T12:49:38.338Z,22.2
2022-10-04T12:51:53.667Z,22.3
2022-10-04T12:54:09.994Z,22.6
2022-10-04T12:56:26.673Z,22.3
2022-10-04T12:58:43.051Z,22
2022-10-04T13:01:02.182Z,22.3
2022-10-04T13:03:15.894Z,22.1
2022-10-04T13:05:32.419Z,22.1
2022-10-04T13:07:48.609Z,22.1
2022-10-04T13:10:25.483Z,22.3
2022-10-04T13:12:36.734Z,22.2
2022-10-04T13:14:53.136Z,22.4
2022-10-04T13:18:10.351Z,22.3
2022-10-04T13:20:26.837Z,22
2022-10-04T13:22:57.980Z,22.1
2022-10-04T13:25:13.788Z,22.5
2022-10-04T13:27:30.202Z,22.2
2022-10-04T13:29:46.784Z,22.1
2022-10-04T13:32:02.834Z,22.1
2022-10-04T13:34:19.466Z,22
2022-10-04T13:36:34.332Z,21.8
2022-10-04T13:38:49.518Z,22.4
2022-10-04T13:41:05.841Z,22.4
2022-10-04T13:43:20.973Z,22.1
2022-10-04T13:45:37.220Z,22.4
2022-10-04T13:47:52.233Z,22.1
2022-10-04T13:50:08.723Z,22.2
2022-10-04T13:52:23.315Z,21.9
2022-10-04T13:54:38.720Z,22.3
2022-10-04T13:56:53.748Z,22.2
2022-10-04T13:59:08.727Z,22.4
2022-10-04T14:01:24.913Z,22.3
2022-10-04T14:03:40.589Z,22.1
2022-10-04T14:05:57.074Z,22.2
2022-10-04T14:08:13.619Z,22.1
2022-10-04T14:10:29.739Z,22.4
2022-10-04T14:12:45.936Z,22.2
2022-10-04T14:15:01.266Z,22.3
2022-10-04T14:17:17.367Z,22.4
2022-10-04T14:19:32.668Z,22.1
2022-10-04T14:21:47.887Z,22.3
2022-10-04T14:24:02.271Z,22.2
2022-10-04T14:26:18.775Z,22.3
2022-10-04T14:28:33.998Z,22
2022-10-04T14:30:48.887Z,22.1
2022-10-04T14:33:04.023Z,22.1
2022-10-04T14:35:20.552Z,22.2
2022-10-04T14:37:35.634Z,21.9
2022-10-04T14:39:50.657Z,22.1
2022-10-04T14:42:07.244Z,21.9
2022-10-04T14:44:23.782Z,21.7
2022-10-04T14:46:40.357Z,21.8
2022-10-04T14:48:55.365Z,21.9
2022-10-04T14:51:10.265Z,22
2022-10-04T14:53:27.403Z,21.9
2022-10-04T14:55:43.511Z,21.9
2022-10-04T14:58:00.114Z,21.6
2022-10-04T15:00:16.671Z,21.7
2022-10-04T15:02:32.871Z,21.7
2022-10-04T15:04:49.273Z,21.8
2022-10-04T15:07:05.617Z,21.7
2022-10-04T15:09:22.083Z,21.7
2022-10-04T15:11:38.375Z,21.5
2022-10-04T15:14:36.707Z,21.6
2022-10-04T15:16:53.080Z,21.6
2022-10-04T15:19:08.061Z,21.6
2022-10-04T15:21:23.027Z,21.8
2022-10-04T15:23:39.593Z,21.8
2022-10-04T15:25:56.200Z,21.6
2022-10-04T15:28:12.856Z,21.5
2022-10-04T15:30:27.773Z,21.3
2022-10-04T15:32:44.377Z,21.9
2022-10-04T15:35:00.744Z,21.6
2022-10-04T15:37:17.447Z,21.6
2022-10-04T15:39:33.737Z,21.5
2022-10-04T15:41:50.220Z,21.5
2022-10-04T15:44:06.689Z,21.4
2022-10-04T15:46:23.131Z,21.4
2022-10-04T15:48:37.942Z,21.4
2022-10-04T15:50:54.712Z,21.7
2022-10-04T15:53:11.758Z,21.5
2022-10-04T15:55:26.071Z,21.1
2022-10-04T15:57:42.342Z,21.8
2022-10-04T15:59:58.984Z,21.3
2022-10-04T16:02:14.018Z,21.3
2022-10-04T16:04:30.609Z,21.6
2022-10-04T16:06:47.353Z,21.3
2022-10-04T16:09:03.600Z,21.4
2022-10-04T16:11:20.072Z,21.2
2022-10-04T16:13:36.480Z,21.3
2022-10-04T16:15:52.894Z,21.4
2022-10-04T16:18:09.446Z,21.3
2022-10-04T16:20:25.875Z,20.9
2022-10-04T16:24:57.241Z,21.1
2022-10-04T16:27:13.779Z,21.6
2022-10-04T16:31:57.873Z,21.3
2022-10-04T16:34:14.378Z,21.4
2022-10-04T16:36:31.313Z,21.1
2022-10-04T16:41:04.304Z,21.1
2022-10-04T16:43:20.675Z,21
2022-10-04T16:47:53.774Z,21.1
2022-10-04T16:50:10.266Z,21
2022-10-04T16:52:26.754Z,21.1
2022-10-04T16:54:43.241Z,21.3
2022-10-04T16:56:59.827Z,21.1
2022-10-04T16:59:16.313Z,21.3
2022-10-04T17:01:32.819Z,21
2022-10-04T17:03:49.427Z,21
2022-10-04T17:06:05.909Z,21
2022-10-04T17:08:22.586Z,21.2
2022-10-04T17:10:38.958Z,21.1
2022-10-04T17:12:55.476Z,20.9
2022-10-04T17:15:11.977Z,20.9
2022-10-04T17:17:28.472Z,21
2022-10-04T17:19:48.065Z,21.1
2022-10-04T17:22:01.926Z,20.9
2022-10-04T17:24:18.233Z,21.1
2022-10-04T17:26:34.852Z,20.9
2022-10-04T17:28:51.313Z,20.9
2022-10-04T17:31:07.903Z,21
2022-10-04T17:33:24.402Z,21
2022-10-04T17:35:41.072Z,21
2022-10-04T17:37:57.621Z,20.9
2022-10-04T17:40:14.312Z,21
2022-10-04T17:42:30.797Z,20.9
2022-10-04T17:44:47.351Z,20.9
2022-10-04T17:47:03.893Z,20.8
2022-10-04T17:49:20.436Z,20.8
2022-10-04T17:51:37.146Z,20.9
2022-10-04T17:53:53.571Z,20.8
2022-10-04T17:56:10.189Z,20.9
2022-10-04T17:58:26.846Z,20.8
2022-10-04T18:00:43.300Z,20.7
2022-10-04T18:03:00.021Z,20.7
2022-10-04T18:05:16.403Z,20.9
2022-10-04T18:07:33.377Z,20.8
2022-10-04T18:09:49.733Z,20.7
2022-10-04T18:12:06.201Z,20.8
2022-10-04T18:14:22.763Z,20.7
2022-10-04T18:16:39.362Z,20.8
2022-10-04T18:18:55.897Z,20.6
2022-10-04T18:21:12.494Z,20.8
2022-10-04T18:23:29.153Z,20.6
2022-10-04T18:25:45.570Z,20.8
2022-10-04T18:28:02.381Z,20.8
2022-10-04T18:30:18.722Z,20.8
2022-10-04T18:32:35.320Z,20.7
2022-10-04T18:34:50.503Z,20.6
2022-10-04T18:37:05.381Z,21
2022-10-04T18:39:22.076Z,20.8
2022-10-04T18:41:38.781Z,20.5
2022-10-04T18:43:55.495Z,20.7
2022-10-04T18:46:10.639Z,20.6
2022-10-04T18:48:27.168Z,20.9
2022-10-04T18:50:43.911Z,20.6
2022-10-04T18:53:00.840Z,20.6
2022-10-04T18:55:17.215Z,20.3
2022-10-04T18:57:33.900Z,20.4
2022-10-04T18:59:50.539Z,20.4
2022-10-04T19:02:07.228Z,20.5
2022-10-04T19:04:23.691Z,20.6
2022-10-04T19:06:40.228Z,20.7
2022-10-04T19:08:56.785Z,20.7
2022-10-04T19:11:13.635Z,20.8
2022-10-04T19:13:30.061Z,20.7
2022-10-04T19:15:46.739Z,20.5
2022-10-04T19:18:01.782Z,20.7
2022-10-04T19:20:19.188Z,20.9
2022-10-04T19:22:35.080Z,20.4
2022-10-04T19:24:51.747Z,20.6
2022-10-04T19:27:29.391Z,20.6
2022-10-04T19:29:45.903Z,20.4
2022-10-04T19:32:02.626Z,20.6
2022-10-04T19:34:19.205Z,20.6
2022-10-04T19:36:35.865Z,20.6
2022-10-04T19:38:50.942Z,20.4
2022-10-04T19:41:07.533Z,20.8
2022-10-04T19:43:25.578Z,20.4
2022-10-04T19:45:41.010Z,20.4
2022-10-04T19:47:57.689Z,20.5
2022-10-04T19:50:14.299Z,20.3
2022-10-04T19:52:30.966Z,20.4
2022-10-04T19:54:47.507Z,20.4
2022-10-04T19:57:04.128Z,20.5
2022-10-04T19:59:19.250Z,20.3
2022-10-04T20:01:36.067Z,20.8
2022-10-04T20:03:52.831Z,20.6
2022-10-04T20:06:09.284Z,20.3
2022-10-04T20:08:25.962Z,20.5
2022-10-04T20:10:41.081Z,20.3
2022-10-04T20:12:57.658Z,20.9
2022-10-04T20:15:14.830Z,20.6
2022-10-04T20:17:31.281Z,20.4
2022-10-04T20:19:47.882Z,20.5
2022-10-04T20:22:04.039Z,20.5
2022-10-04T20:24:21.226Z,20.2
2022-10-04T20:26:36.340Z,20.3
2022-10-04T20:28:52.871Z,20.8
2022-10-04T20:31:09.719Z,20.3
2022-10-04T20:33:29.720Z,20.6
2022-10-04T20:35:43.047Z,20.3
2022-10-04T20:38:20.312Z,20.2
2022-10-04T20:40:30.446Z,20.4
2022-10-04T20:42:47.048Z,20.8
2022-10-04T20:45:03.828Z,20.2
2022-10-04T20:47:20.563Z,20.3
2022-10-04T20:49:37.261Z,20.3
2022-10-04T20:51:53.880Z,20.3
2022-10-04T20:54:11.099Z,20.2
2022-10-04T20:56:27.230Z,20.3
2022-10-04T20:58:42.317Z,20.1
2022-10-04T21:00:57.434Z,20.6
2022-10-04T21:03:12.658Z,20.6
2022-10-04T21:05:27.931Z,20.5
2022-10-04T21:07:44.728Z,20.6
2022-10-04T21:10:01.618Z,20.3
2022-10-04T21:12:18.359Z,20.1
2022-10-04T21:14:35.349Z,20.3
2022-10-04T21:16:52.452Z,20
2022-10-04T21:19:08.512Z,20.3
2022-10-04T21:21:25.302Z,20.3
2022-10-04T21:23:41.898Z,20.2
2022-10-04T21:25:58.641Z,20.3
2022-10-04T21:28:15.316Z,20.3
2022-10-04T21:30:32.005Z,20.1
2022-10-04T21:32:46.963Z,20
2022-10-04T21:35:21.587Z,20.4
2022-10-04T21:37:38.121Z,20.1
2022-10-04T21:39:55.108Z,20.3
2022-10-04T21:42:11.621Z,20
2022-10-04T21:44:26.787Z,20.1
2022-10-04T21:46:43.562Z,20.6
2022-10-04T21:49:00.093Z,19.9
2022-10-04T21:51:17.114Z,20.1
2022-10-04T21:53:33.589Z,20.2
2022-10-04T21:55:50.252Z,20.1
2022-10-04T21:58:07.026Z,20.1
2022-10-04T22:00:23.747Z,20
2022-10-04T22:02:40.469Z,20
2022-10-04T22:04:57.121Z,20.1
2022-10-04T22:07:13.869Z,20
2022-10-04T22:09:28.949Z,20.2
2022-10-04T22:11:45.570Z,20.4
2022-10-04T22:14:00.760Z,19.9
2022-10-04T22:16:17.430Z,20.6
2022-10-04T22:18:34.277Z,19.9
2022-10-04T22:20:49.389Z,20.2
2022-10-04T22:23:06.054Z,20.4
2022-10-04T22:25:23.156Z,19.9
2022-10-04T22:27:39.714Z,20
2022-10-04T22:29:56.446Z,20.1
2022-10-04T22:32:13.188Z,20.1
2022-10-04T22:34:29.900Z,20
2022-10-04T22:36:46.838Z,19.9
2022-10-04T22:39:03.447Z,19.8
2022-10-04T22:41:20.108Z,20.3
2022-10-04T22:43:36.807Z,19.9
2022-10-04T22:45:53.587Z,19.9
2022-10-04T22:48:10.088Z,20.1
2022-10-04T22:50:25.272Z,20.1
2022-10-04T22:52:40.429Z,20.3
2022-10-04T22:54:55.743Z,20.3
2022-10-04T22:57:12.594Z,20.3
2022-10-04T22:59:29.372Z,20.3
2022-10-04T23:01:46.205Z,20
2022-10-04T23:04:03.038Z,19.8
2022-10-04T23:06:19.872Z,19.9
2022-10-04T23:08:36.578Z,20.1
2022-10-04T23:10:53.546Z,20.1
2022-10-04T23:13:10.047Z,19.8
2022-10-04T23:15:26.767Z,19.9
2022-10-04T23:17:43.960Z,19.7
2022-10-04T23:19:58.660Z,19.9
2022-10-04T23:22:15.302Z,20.3
2022-10-04T23:24:32.128Z,19.9
2022-10-04T23:26:49.243Z,20
2022-10-04T23:29:05.590Z,20.1
2022-10-04T23:31:22.392Z,19.6
2022-10-04T23:33:37.583Z,20
2022-10-04T23:35:54.746Z,20.3
2022-10-04T23:38:11.026Z,19.8
2022-10-04T23:40:27.895Z,19.9
2022-10-04T23:42:44.672Z,19.7
2022-10-04T23:45:01.312Z,19.6
2022-10-04T23:47:18.066Z,19.7
2022-10-04T23:49:34.848Z,19.8
2022-10-04T23:51:51.611Z,19.6
2022-10-04T23:54:06.790Z,19.7
2022-10-04T23:56:22.179Z,20.1
2022-10-04T23:58:38.734Z,20.4
